Time;durP1;ratioP1;P1;durP2;ratioP2;P2;SDS_P1;SDS_P2;PMS_P1;PMS_P2;Temp;Humidity;BMP_temperature;BMP_pressure;BME280_temperature;BME280_humidity;BME280_pressure;Samples;Min_cycle;Max_cycle;Signal;HPM_P1;HPM_P2
2022/10/23 00:01:39;;;;;;;;;;;13.60;99.90;;;;;;5080265;28;19963;-64
2022/10/23 00:04:08;;;;;;;;;;;13.60;99.90;;;;;;5088359;28;19971;-64
2022/10/23 00:06:37;;;;;;;;;;;13.60;99.90;;;;;;5096869;28;19968;-64
2022/10/23 00:09:06;;;;;;;;;;;13.50;99.90;;;;;;5096302;28;20318;-64
2022/10/23 00:11:34;;;;;;;;;;;13.50;99.90;;;;;;5088325;28;19964;-64
2022/10/23 00:14:03;;;;;;;;;;;13.50;99.90;;;;;;5092421;28;19971;-64
2022/10/23 00:16:31;;;;;;;;;;;13.50;99.90;;;;;;5092219;28;20541;-64
2022/10/23 00:18:59;;;;;;;;;;;13.50;99.90;;;;;;5091900;28;19974;-64
2022/10/23 00:21:27;;;;;;;;;;;13.50;99.90;;;;;;5092792;28;19973;-64
2022/10/23 00:23:55;;;;;;;;;;;13.50;99.90;;;;;;5095715;28;20013;-64
2022/10/23 00:26:24;;;;;;;;;;;13.50;99.90;;;;;;5090890;28;20020;-64
2022/10/23 00:28:52;;;;;;;;;;;13.40;99.90;;;;;;5099598;28;19970;-64
2022/10/23 00:31:20;;;;;;;;;;;13.40;99.90;;;;;;5112255;28;19971;-64
2022/10/23 00:33:48;;;;;;;;;;;13.40;99.90;;;;;;5112267;28;19966;-64
2022/10/23 00:36:18;;;;;;;;;;;13.40;99.90;;;;;;5112455;28;19994;-64
2022/10/23 00:38:46;;;;;;;;;;;13.40;99.90;;;;;;5100528;28;19969;-64
2022/10/23 00:41:15;;;;;;;;;;;13.50;99.90;;;;;;5096317;28;20438;-64
2022/10/23 00:43:58;;;;;;;;;;;13.40;99.90;;;;;;5091996;28;20304;-65
2022/10/23 00:46:26;;;;;;;;;;;13.40;99.90;;;;;;5093677;28;20347;-64
2022/10/23 00:48:54;;;;;;;;;;;13.30;99.90;;;;;;5100337;28;20393;-64
2022/10/23 00:51:22;;;;;;;;;;;13.40;99.90;;;;;;5116179;28;20053;-64
2022/10/23 00:53:52;;;;;;;;;;;13.30;99.90;;;;;;5116218;28;20384;-65
2022/10/23 00:56:40;;;;;;;;;;;13.40;99.90;;;;;;5094066;28;20033;-64
2022/10/23 00:59:09;;;;;;;;;;;13.30;99.90;;;;;;5107471;28;19989;-64
2022/10/23 01:01:36;;;;;;;;;;;13.20;99.90;;;;;;5115968;28;19967;-64
2022/10/23 01:04:05;;;;;;;;;;;13.20;99.90;;;;;;5114115;28;19971;-64
2022/10/23 01:06:36;;;;;;;;;;;13.10;99.90;;;;;;5095747;28;19979;-64
2022/10/23 01:09:09;;;;;;;;;;;13.10;99.90;;;;;;5094889;28;19971;-65
2022/10/23 01:11:40;;;;;;;;;;;13.10;99.90;;;;;;5095217;28;19968;-65
2022/10/23 01:14:14;;;;;;;;;;;13.00;99.90;;;;;;5095521;28;19967;-64
2022/10/23 01:16:46;;;;;;;;;;;12.90;99.90;;;;;;5095659;28;20082;-64
2022/10/23 01:19:20;;;;;;;;;;;12.80;99.90;;;;;;5095292;28;19975;-64
2022/10/23 01:21:53;;;;;;;;;;;12.60;99.90;;;;;;5096516;28;19970;-64
2022/10/23 01:24:30;;;;;;;;;;;12.60;99.90;;;;;;5110008;28;19970;-65
2022/10/23 01:27:03;;;;;;;;;;;12.50;99.90;;;;;;5096187;28;20443;-65
2022/10/23 01:29:35;;;;;;;;;;;12.50;99.90;;;;;;5112769;28;19974;-64
2022/10/23 01:32:06;;;;;;;;;;;12.60;99.90;;;;;;5095260;28;20011;-64
2022/10/23 01:34:38;;;;;;;;;;;12.50;99.90;;;;;;5094844;28;19967;-65
2022/10/23 01:37:10;;;;;;;;;;;12.50;99.90;;;;;;5095099;28;20469;-65
2022/10/23 01:39:41;;;;;;;;;;;12.50;99.90;;;;;;5094616;28;20062;-65
2022/10/23 01:42:10;;;;;;;;;;;12.50;99.90;;;;;;5097917;28;19977;-65
2022/10/23 01:44:41;;;;;;;;;;;12.50;99.90;;;;;;5115056;28;19974;-65
2022/10/23 01:47:11;;;;;;;;;;;12.50;99.90;;;;;;5107030;28;19975;-65
2022/10/23 01:49:40;;;;;;;;;;;12.50;99.90;;;;;;5094531;28;19972;-64
2022/10/23 01:52:10;;;;;;;;;;;12.50;99.90;;;;;;5094819;28;19971;-64
2022/10/23 01:54:39;;;;;;;;;;;12.50;99.90;;;;;;5098005;28;19970;-64
2022/10/23 01:57:08;;;;;;;;;;;12.50;99.90;;;;;;5095938;28;19964;-65
2022/10/23 01:59:38;;;;;;;;;;;12.50;99.90;;;;;;5091920;28;20049;-64
2022/10/23 02:02:08;;;;;;;;;;;12.50;99.90;;;;;;5096806;28;19967;-64
2022/10/23 02:04:38;;;;;;;;;;;12.50;99.90;;;;;;5098974;28;19998;-65
2022/10/23 02:07:06;;;;;;;;;;;12.50;99.90;;;;;;5098207;28;19967;-66
2022/10/23 02:09:34;;;;;;;;;;;12.50;99.90;;;;;;5097536;28;19970;-64
2022/10/23 02:12:06;;;;;;;;;;;12.40;99.90;;;;;;5096548;28;19971;-64
2022/10/23 02:14:40;;;;;;;;;;;12.30;99.90;;;;;;5092784;28;20039;-64
2022/10/23 02:17:14;;;;;;;;;;;12.30;99.90;;;;;;5101833;28;20024;-65
2022/10/23 02:19:45;;;;;;;;;;;12.30;99.90;;;;;;5104722;28;20447;-64
2022/10/23 02:22:16;;;;;;;;;;;12.40;99.90;;;;;;5106595;28;19967;-65
2022/10/23 02:24:46;;;;;;;;;;;12.40;99.90;;;;;;5102503;28;19968;-65
2022/10/23 02:27:16;;;;;;;;;;;12.40;99.90;;;;;;5103570;28;19973;-65
2022/10/23 02:29:45;;;;;;;;;;;12.40;99.90;;;;;;5099509;28;19970;-64
2022/10/23 02:32:15;;;;;;;;;;;12.40;99.90;;;;;;5091766;28;19963;-64
2022/10/23 02:34:43;;;;;;;;;;;12.40;99.90;;;;;;5095237;28;19963;-65
2022/10/23 02:37:11;;;;;;;;;;;12.50;99.90;;;;;;5101715;28;19974;-66
2022/10/23 02:39:39;;;;;;;;;;;12.40;99.90;;;;;;5087483;28;19967;-64
2022/10/23 02:42:11;;;;;;;;;;;12.40;99.90;;;;;;5101172;28;20493;-64
2022/10/23 02:44:42;;;;;;;;;;;12.40;99.90;;;;;;5100231;28;19968;-64
2022/10/23 02:47:15;;;;;;;;;;;12.40;99.90;;;;;;5107631;28;19969;-64
2022/10/23 02:49:50;;;;;;;;;;;12.30;99.90;;;;;;5099165;28;19972;-66
2022/10/23 02:52:21;;;;;;;;;;;12.30;99.90;;;;;;5107135;28;19967;-66
2022/10/23 02:54:52;;;;;;;;;;;12.30;99.90;;;;;;5103584;28;19971;-64
2022/10/23 02:57:26;;;;;;;;;;;12.30;99.90;;;;;;5103651;28;19969;-64
2022/10/23 02:59:59;;;;;;;;;;;12.30;99.90;;;;;;5104820;28;19967;-65
2022/10/23 03:02:30;;;;;;;;;;;12.30;99.90;;;;;;5091967;28;20086;-65
2022/10/23 03:05:06;;;;;;;;;;;12.20;99.90;;;;;;5101132;28;20077;-65
2022/10/23 03:07:34;;;;;;;;;;;12.20;99.90;;;;;;5096672;28;19963;-64
2022/10/23 03:10:01;;;;;;;;;;;12.30;99.90;;;;;;5095727;28;19971;-64
2022/10/23 03:12:29;;;;;;;;;;;12.30;99.90;;;;;;5100553;28;19977;-65
2022/10/23 03:14:57;;;;;;;;;;;12.30;99.90;;;;;;5096520;28;20006;-64
2022/10/23 03:17:25;;;;;;;;;;;12.40;99.90;;;;;;5088195;28;19963;-64
2022/10/23 03:19:53;;;;;;;;;;;12.40;99.90;;;;;;5096414;28;19972;-64
2022/10/23 03:22:22;;;;;;;;;;;12.50;99.90;;;;;;5096721;28;19967;-64
2022/10/23 03:24:49;;;;;;;;;;;12.50;99.90;;;;;;5091454;28;19975;-64
2022/10/23 03:27:17;;;;;;;;;;;12.40;99.90;;;;;;5098044;28;20009;-64
2022/10/23 03:29:45;;;;;;;;;;;12.30;99.90;;;;;;5099149;28;19963;-64
2022/10/23 03:32:12;;;;;;;;;;;12.30;99.90;;;;;;5107988;28;19973;-65
2022/10/23 03:34:40;;;;;;;;;;;12.30;99.90;;;;;;5100767;28;19963;-66
2022/10/23 03:37:08;;;;;;;;;;;12.20;99.90;;;;;;5103932;28;20432;-65
2022/10/23 03:39:37;;;;;;;;;;;12.20;99.90;;;;;;5104431;28;19985;-64
2022/10/23 03:42:04;;;;;;;;;;;12.10;99.90;;;;;;5098006;28;20440;-64
2022/10/23 03:44:33;;;;;;;;;;;12.10;99.90;;;;;;5097180;28;19972;-65
2022/10/23 03:47:00;;;;;;;;;;;12.10;99.90;;;;;;5097702;28;19998;-65
2022/10/23 03:49:28;;;;;;;;;;;12.10;99.90;;;;;;5103813;28;20435;-65
2022/10/23 03:51:56;;;;;;;;;;;12.10;99.90;;;;;;5093562;28;19967;-65
2022/10/23 03:54:24;;;;;;;;;;;12.20;99.90;;;;;;5098669;28;19963;-66
2022/10/23 03:56:53;;;;;;;;;;;12.20;99.90;;;;;;5093543;28;19971;-66
2022/10/23 03:59:24;;;;;;;;;;;12.20;99.90;;;;;;5094963;28;20585;-65
2022/10/23 04:01:52;;;;;;;;;;;12.30;99.90;;;;;;5099915;28;19974;-65
2022/10/23 04:04:20;;;;;;;;;;;12.40;99.90;;;;;;5095399;28;20062;-65
2022/10/23 04:06:47;;;;;;;;;;;12.40;99.90;;;;;;5095645;28;19970;-67
2022/10/23 04:09:15;;;;;;;;;;;12.40;99.90;;;;;;5089997;28;19971;-65
2022/10/23 04:11:43;;;;;;;;;;;12.50;99.90;;;;;;5091585;28;19970;-64
2022/10/23 04:14:13;;;;;;;;;;;12.50;99.90;;;;;;5097937;28;19974;-65
2022/10/23 04:16:41;;;;;;;;;;;12.50;99.90;;;;;;5109915;28;19963;-65
2022/10/23 04:19:09;;;;;;;;;;;12.50;99.90;;;;;;5105607;28;20343;-65
2022/10/23 04:21:36;;;;;;;;;;;12.50;99.90;;;;;;5100995;28;19963;-65
2022/10/23 04:24:05;;;;;;;;;;;12.50;99.90;;;;;;5104872;28;19967;-64
2022/10/23 04:26:32;;;;;;;;;;;12.50;99.90;;;;;;5096081;28;19971;-65
2022/10/23 04:29:00;;;;;;;;;;;12.50;99.90;;;;;;5101560;28;19978;-65
2022/10/23 04:31:29;;;;;;;;;;;12.50;99.90;;;;;;5093932;28;19963;-65
2022/10/23 04:33:57;;;;;;;;;;;12.40;99.90;;;;;;5095907;28;19967;-66
2022/10/23 04:36:25;;;;;;;;;;;12.40;99.90;;;;;;5096980;28;19963;-65
2022/10/23 04:38:53;;;;;;;;;;;12.50;99.90;;;;;;5100057;28;19975;-65
2022/10/23 04:41:20;;;;;;;;;;;12.40;99.90;;;;;;5101454;28;19967;-65
2022/10/23 04:43:48;;;;;;;;;;;12.40;99.90;;;;;;5098293;28;19971;-66
2022/10/23 04:46:16;;;;;;;;;;;12.40;99.90;;;;;;5104715;28;19986;-65
2022/10/23 04:48:45;;;;;;;;;;;12.30;99.90;;;;;;5091083;28;20359;-66
2022/10/23 04:51:13;;;;;;;;;;;12.30;99.90;;;;;;5103566;28;19973;-65
2022/10/23 04:53:40;;;;;;;;;;;12.20;99.90;;;;;;5105275;28;20088;-66
2022/10/23 04:56:12;;;;;;;;;;;12.20;99.90;;;;;;5101027;28;19973;-66
2022/10/23 04:58:40;;;;;;;;;;;12.20;99.90;;;;;;5101196;28;19979;-65
2022/10/23 05:01:09;;;;;;;;;;;12.20;99.90;;;;;;5104773;28;19967;-65
2022/10/23 05:03:37;;;;;;;;;;;12.10;99.90;;;;;;5100095;28;19970;-65
2022/10/23 05:06:07;;;;;;;;;;;12.20;99.90;;;;;;5100810;28;19974;-66
2022/10/23 05:08:35;;;;;;;;;;;12.30;99.90;;;;;;5095146;28;20418;-65
2022/10/23 05:11:03;;;;;;;;;;;12.30;99.90;;;;;;5092664;28;19974;-64
2022/10/23 05:13:30;;;;;;;;;;;12.40;99.90;;;;;;5100135;28;20385;-65
2022/10/23 05:15:58;;;;;;;;;;;12.50;99.90;;;;;;5099875;28;19973;-65
2022/10/23 05:18:28;;;;;;;;;;;12.50;99.90;;;;;;5102365;28;19967;-65
2022/10/23 05:20:57;;;;;;;;;;;12.40;99.90;;;;;;5099800;28;19967;-65
2022/10/23 05:23:27;;;;;;;;;;;12.40;99.90;;;;;;5096917;28;20009;-65
2022/10/23 05:25:55;;;;;;;;;;;12.50;99.90;;;;;;5093528;28;20028;-65
2022/10/23 05:28:23;;;;;;;;;;;12.50;99.90;;;;;;5107477;28;19967;-65
2022/10/23 05:30:50;;;;;;;;;;;12.50;99.90;;;;;;5090060;28;20459;-64
2022/10/23 05:33:18;;;;;;;;;;;12.30;99.90;;;;;;5093886;28;19968;-65
2022/10/23 05:35:46;;;;;;;;;;;12.30;99.90;;;;;;5096930;28;20343;-65
2022/10/23 05:38:14;;;;;;;;;;;12.20;99.90;;;;;;5095868;28;19968;-65
2022/10/23 05:40:43;;;;;;;;;;;12.10;99.90;;;;;;5097100;22;20526;-63
2022/10/23 05:43:11;;;;;;;;;;;12.20;99.90;;;;;;5070329;28;20516;-63
2022/10/23 05:45:38;;;;;;;;;;;12.10;99.90;;;;;;5061446;28;20363;-63
2022/10/23 05:48:07;;;;;;;;;;;12.00;99.90;;;;;;5069536;28;19968;-63
2022/10/23 05:50:48;;;;;;;;;;;12.00;99.90;;;;;;5072139;28;19964;-63
2022/10/23 05:53:16;;;;;;;;;;;12.10;99.90;;;;;;5060104;28;19970;-63
2022/10/23 05:55:45;;;;;;;;;;;12.10;99.90;;;;;;5060597;28;19972;-63
2022/10/23 05:58:13;;;;;;;;;;;12.10;99.90;;;;;;5061421;28;19970;-61
2022/10/23 06:00:41;;;;;;;;;;;12.00;99.90;;;;;;5063118;28;19964;-61
2022/10/23 06:03:08;;;;;;;;;;;11.90;99.90;;;;;;5064757;28;19974;-61
2022/10/23 06:05:36;;;;;;;;;;;11.90;99.90;;;;;;5062103;28;20061;-62
2022/10/23 06:08:04;;;;;;;;;;;11.90;99.90;;;;;;5051929;28;19968;-62
2022/10/23 06:10:31;;;;;;;;;;;11.90;99.90;;;;;;5063884;28;19968;-62
2022/10/23 06:13:00;;;;;;;;;;;11.90;99.90;;;;;;5051324;28;19974;-62
2022/10/23 06:15:28;;;;;;;;;;;12.00;99.90;;;;;;5057847;28;19979;-62
2022/10/23 06:17:59;;;;;;;;;;;11.90;99.90;;;;;;5061169;28;19970;-61
2022/10/23 06:20:27;;;;;;;;;;;12.00;99.90;;;;;;5063576;28;19964;-62
2022/10/23 06:22:55;;;;;;;;;;;12.00;99.90;;;;;;5061098;28;19970;-61
2022/10/23 06:25:23;;;;;;;;;;;11.90;99.90;;;;;;5063012;28;19965;-62
2022/10/23 06:27:51;;;;;;;;;;;11.90;99.90;;;;;;5056791;28;19976;-63
2022/10/23 06:30:20;;;;;;;;;;;12.00;99.90;;;;;;5057381;28;20434;-62
2022/10/23 06:32:48;;;;;;;;;;;12.00;99.90;;;;;;5062927;28;19972;-62
2022/10/23 06:35:16;;;;;;;;;;;12.00;99.90;;;;;;5061127;28;19987;-63
2022/10/23 06:37:43;;;;;;;;;;;12.00;99.90;;;;;;5050158;28;19963;-63
2022/10/23 06:40:11;;;;;;;;;;;12.00;99.90;;;;;;5052694;28;19964;-63
2022/10/23 06:42:39;;;;;;;;;;;12.00;99.90;;;;;;5046420;28;19968;-62
2022/10/23 06:45:07;;;;;;;;;;;12.00;99.90;;;;;;5051370;28;20022;-62
2022/10/23 06:47:36;;;;;;;;;;;11.90;99.90;;;;;;5064373;28;19964;-63
2022/10/23 06:50:04;;;;;;;;;;;12.00;99.90;;;;;;5073173;28;19974;-62
2022/10/23 06:52:32;;;;;;;;;;;12.00;99.90;;;;;;5057783;28;19968;-62
2022/10/23 06:55:14;;;;;;;;;;;12.00;99.90;;;;;;5041890;28;20344;-62
2022/10/23 06:57:42;;;;;;;;;;;12.00;99.90;;;;;;5051426;28;19970;-62
2022/10/23 07:00:11;;;;;;;;;;;12.00;99.90;;;;;;5064767;28;19968;-63
2022/10/23 07:02:40;;;;;;;;;;;12.10;99.90;;;;;;5072529;28;19966;-63
2022/10/23 07:05:08;;;;;;;;;;;12.10;99.90;;;;;;5073247;28;19968;-62
2022/10/23 07:07:40;;;;;;;;;;;12.10;99.90;;;;;;5047470;28;20346;-63
2022/10/23 07:10:08;;;;;;;;;;;12.20;99.90;;;;;;5043819;28;19964;-63
2022/10/23 07:12:36;;;;;;;;;;;12.20;99.90;;;;;;5056309;28;20025;-63
2022/10/23 07:15:04;;;;;;;;;;;12.20;99.90;;;;;;5050132;28;20692;-62
2022/10/23 07:17:31;;;;;;;;;;;12.30;99.90;;;;;;5053193;28;20336;-63
2022/10/23 07:20:00;;;;;;;;;;;12.40;99.90;;;;;;5042773;28;19972;-62
2022/10/23 07:22:28;;;;;;;;;;;12.40;99.90;;;;;;5055010;28;20527;-63
2022/10/23 07:24:56;;;;;;;;;;;12.50;99.90;;;;;;5060862;28;19968;-61
2022/10/23 07:27:23;;;;;;;;;;;12.60;99.90;;;;;;5054915;28;19974;-62
2022/10/23 07:29:51;;;;;;;;;;;12.70;99.90;;;;;;5054355;28;20518;-62
2022/10/23 07:32:19;;;;;;;;;;;12.70;99.90;;;;;;5048158;28;19968;-62
2022/10/23 07:34:46;;;;;;;;;;;12.80;99.90;;;;;;5052581;28;19972;-63
2022/10/23 07:37:15;;;;;;;;;;;12.90;99.90;;;;;;5040085;28;19969;-61
2022/10/23 07:39:43;;;;;;;;;;;13.00;99.90;;;;;;5057995;28;19964;-63
2022/10/23 07:42:11;;;;;;;;;;;13.10;99.90;;;;;;5052738;28;20040;-65
2022/10/23 07:44:38;;;;;;;;;;;13.10;99.90;;;;;;5041573;28;19964;-64
2022/10/23 07:47:06;;;;;;;;;;;13.20;99.90;;;;;;5032090;28;20364;-65
2022/10/23 07:49:34;;;;;;;;;;;13.30;99.90;;;;;;5050147;28;20499;-65
2022/10/23 07:52:02;;;;;;;;;;;13.30;99.90;;;;;;5066313;28;19975;-65
2022/10/23 07:54:35;;;;;;;;;;;13.50;99.90;;;;;;5048685;28;19964;-64
2022/10/23 07:57:03;;;;;;;;;;;13.50;99.90;;;;;;5059189;28;19978;-64
2022/10/23 07:59:32;;;;;;;;;;;13.50;99.90;;;;;;5056328;28;20421;-65
2022/10/23 08:02:04;;;;;;;;;;;13.60;99.90;;;;;;5044718;28;20436;-64
2022/10/23 08:04:32;;;;;;;;;;;13.70;99.90;;;;;;5067341;28;20460;-65
2022/10/23 08:07:00;;;;;;;;;;;13.80;99.90;;;;;;5051830;28;20413;-65
2022/10/23 08:09:28;;;;;;;;;;;13.80;99.90;;;;;;5070659;28;20322;-65
2022/10/23 08:11:57;;;;;;;;;;;13.90;99.90;;;;;;5071124;28;20062;-65
2022/10/23 08:14:24;;;;;;;;;;;14.00;99.90;;;;;;5069919;28;19972;-65
2022/10/23 08:16:52;;;;;;;;;;;14.10;99.90;;;;;;5031824;28;19976;-65
2022/10/23 08:19:20;;;;;;;;;;;14.20;99.90;;;;;;5048773;28;19968;-64
2022/10/23 08:21:47;;;;;;;;;;;14.20;99.90;;;;;;5066625;28;19967;-64
2022/10/23 08:24:15;;;;;;;;;;;14.20;99.90;;;;;;5072045;28;20372;-62
2022/10/23 08:26:43;;;;;;;;;;;14.20;99.90;;;;;;5047603;28;19972;-62
2022/10/23 08:29:12;;;;;;;;;;;14.20;99.90;;;;;;5065950;28;19968;-63
2022/10/23 08:31:40;;;;;;;;;;;14.20;99.90;;;;;;5031974;28;19973;-62
2022/10/23 08:34:07;;;;;;;;;;;14.20;99.90;;;;;;5060083;28;19975;-61
2022/10/23 08:36:38;;;;;;;;;;;14.30;99.90;;;;;;5034281;28;20066;-62
2022/10/23 08:39:05;;;;;;;;;;;14.20;99.90;;;;;;5059336;28;19968;-63
2022/10/23 08:41:34;;;;;;;;;;;14.30;99.90;;;;;;5071473;28;19974;-62
2022/10/23 08:44:07;;;;;;;;;;;14.30;99.90;;;;;;5061621;28;20332;-63
2022/10/23 08:46:39;;;;;;;;;;;14.30;99.90;;;;;;5051192;28;19982;-62
2022/10/23 08:49:17;;;;;;;;;;;14.40;99.90;;;;;;5051714;28;19974;-62
2022/10/23 08:51:47;;;;;;;;;;;14.50;99.90;;;;;;5047593;28;19971;-62
2022/10/23 08:54:16;;;;;;;;;;;14.60;99.90;;;;;;5031607;28;19969;-63
2022/10/23 08:56:47;;;;;;;;;;;14.60;99.90;;;;;;5059718;28;19972;-61
2022/10/23 08:59:19;;;;;;;;;;;14.70;99.90;;;;;;5051013;28;20439;-63
2022/10/23 09:01:49;;;;;;;;;;;14.70;99.90;;;;;;5049512;28;19964;-62
2022/10/23 09:04:17;;;;;;;;;;;14.60;99.90;;;;;;5051081;28;20408;-63
2022/10/23 09:06:48;;;;;;;;;;;14.60;99.90;;;;;;5050804;28;19990;-63
2022/10/23 09:09:26;;;;;;;;;;;14.60;99.90;;;;;;5049632;28;20062;-63
2022/10/23 09:11:59;;;;;;;;;;;14.60;99.90;;;;;;5050391;28;19975;-63
2022/10/23 09:14:40;;;;;;;;;;;14.50;99.90;;;;;;5054748;28;19963;-63
2022/10/23 09:17:16;;;;;;;;;;;14.60;99.90;;;;;;5054314;28;19968;-63
2022/10/23 09:19:44;;;;;;;;;;;14.60;99.90;;;;;;5058091;28;19964;-62
2022/10/23 09:22:12;;;;;;;;;;;14.50;99.90;;;;;;5053739;28;19968;-63
2022/10/23 09:24:42;;;;;;;;;;;14.50;99.90;;;;;;5048791;28;19971;-63
2022/10/23 09:27:13;;;;;;;;;;;14.50;99.90;;;;;;5050304;28;20660;-63
2022/10/23 09:29:46;;;;;;;;;;;14.50;99.90;;;;;;5060085;28;19964;-63
2022/10/23 09:32:15;;;;;;;;;;;14.50;99.90;;;;;;5053384;28;20421;-63
2022/10/23 09:34:50;;;;;;;;;;;14.70;99.90;;;;;;5054028;28;19968;-62
2022/10/23 09:37:21;;;;;;;;;;;14.90;99.90;;;;;;5055920;28;20019;-61
2022/10/23 09:39:48;;;;;;;;;;;15.00;99.90;;;;;;5061362;28;20005;-60
2022/10/23 09:42:21;;;;;;;;;;;15.10;99.90;;;;;;5051409;28;19975;-62
2022/10/23 09:44:50;;;;;;;;;;;15.10;99.90;;;;;;5061472;28;20074;-62
2022/10/23 09:47:20;;;;;;;;;;;15.00;99.90;;;;;;5053170;28;19972;-62
2022/10/23 09:49:48;;;;;;;;;;;15.00;99.90;;;;;;5052667;28;20065;-62
2022/10/23 09:52:23;;;;;;;;;;;15.10;99.90;;;;;;5053666;28;19975;-63
2022/10/23 09:54:52;;;;;;;;;;;15.10;99.90;;;;;;5054122;28;19998;-63
2022/10/23 09:57:22;;;;;;;;;;;15.20;99.90;;;;;;5067592;28;20341;-62
2022/10/23 09:59:51;;;;;;;;;;;15.30;99.90;;;;;;5053679;28;19984;-63
2022/10/23 10:02:26;;;;;;;;;;;15.50;99.90;;;;;;5053691;28;19991;-62
2022/10/23 10:04:54;;;;;;;;;;;15.60;99.90;;;;;;5054012;28;19972;-63
2022/10/23 10:07:23;;;;;;;;;;;15.90;99.90;;;;;;5053275;28;19975;-63
2022/10/23 10:09:52;;;;;;;;;;;15.90;99.90;;;;;;5053340;28;19971;-63
2022/10/23 10:12:28;;;;;;;;;;;16.00;99.90;;;;;;5053512;28;19968;-63
2022/10/23 10:15:02;;;;;;;;;;;16.00;99.90;;;;;;5053307;28;19988;-63
2022/10/23 10:17:35;;;;;;;;;;;15.90;99.90;;;;;;5041262;28;19974;-63
2022/10/23 10:20:10;;;;;;;;;;;15.70;99.90;;;;;;5033275;28;20513;-62
2022/10/23 10:22:40;;;;;;;;;;;15.70;99.90;;;;;;5033608;28;19983;-62
2022/10/23 10:25:12;;;;;;;;;;;15.60;99.90;;;;;;5036427;28;19968;-63
2022/10/23 10:27:45;;;;;;;;;;;15.60;99.90;;;;;;5053538;28;19964;-63
2022/10/23 10:30:14;;;;;;;;;;;15.50;99.90;;;;;;5052998;28;20338;-62
2022/10/23 10:32:46;;;;;;;;;;;15.40;99.90;;;;;;5053465;28;19975;-62
2022/10/23 10:35:22;;;;;;;;;;;15.40;99.90;;;;;;5053403;28;19968;-64
2022/10/23 10:37:59;;;;;;;;;;;15.40;99.90;;;;;;5039576;28;19995;-64
2022/10/23 10:40:29;;;;;;;;;;;15.40;99.90;;;;;;5032734;28;20365;-64
2022/10/23 10:43:18;;;;;;;;;;;15.40;99.90;;;;;;5033381;28;19975;-63
2022/10/23 10:45:47;;;;;;;;;;;15.40;99.90;;;;;;5028081;28;20460;-64
2022/10/23 10:48:25;;;;;;;;;;;15.40;99.90;;;;;;5032856;28;20018;-64
2022/10/23 10:50:54;;;;;;;;;;;15.40;99.90;;;;;;5032747;28;19972;-64
2022/10/23 10:53:25;;;;;;;;;;;15.30;99.90;;;;;;5033309;28;20044;-64
2022/10/23 10:55:54;;;;;;;;;;;15.20;99.90;;;;;;5045928;28;19971;-64
2022/10/23 10:58:27;;;;;;;;;;;15.20;99.90;;;;;;5051644;28;19968;-65
2022/10/23 11:00:55;;;;;;;;;;;15.20;99.90;;;;;;5072413;28;19979;-65
2022/10/23 11:03:28;;;;;;;;;;;15.20;99.90;;;;;;5072766;28;20505;-65
2022/10/23 11:05:57;;;;;;;;;;;15.20;99.90;;;;;;5072273;28;19971;-64
2022/10/23 11:08:33;;;;;;;;;;;15.30;99.90;;;;;;5072442;28;19966;-64
2022/10/23 11:11:24;;;;;;;;;;;15.40;99.90;;;;;;5066633;28;19964;-64
2022/10/23 11:13:52;;;;;;;;;;;15.60;99.90;;;;;;5052699;28;20426;-62
2022/10/23 11:16:22;;;;;;;;;;;15.70;99.90;;;;;;5051970;28;19975;-65
2022/10/23 11:18:59;;;;;;;;;;;16.00;99.90;;;;;;5052505;28;19968;-64
2022/10/23 11:21:29;;;;;;;;;;;16.00;99.90;;;;;;5051996;28;19978;-64
2022/10/23 11:24:18;;;;;;;;;;;16.00;99.90;;;;;;5052200;28;19974;-64
2022/10/23 11:26:53;;;;;;;;;;;15.90;99.90;;;;;;5050923;28;20452;-64
2022/10/23 11:29:31;;;;;;;;;;;15.70;99.90;;;;;;5049274;28;20393;-64
2022/10/23 11:32:05;;;;;;;;;;;15.70;99.90;;;;;;5051273;28;19999;-64
2022/10/23 11:34:43;;;;;;;;;;;15.80;99.90;;;;;;5052299;28;19975;-64
2022/10/23 11:37:15;;;;;;;;;;;15.80;99.90;;;;;;5051460;28;19967;-63
2022/10/23 11:40:09;;;;;;;;;;;16.00;99.90;;;;;;5051626;28;19972;-64
2022/10/23 11:42:46;;;;;;;;;;;16.20;99.90;;;;;;5051977;28;19974;-63
2022/10/23 11:45:30;;;;;;;;;;;16.30;99.90;;;;;;5051877;28;19967;-63
2022/10/23 11:47:59;;;;;;;;;;;16.30;99.90;;;;;;5049999;28;20010;-62
2022/10/23 11:50:30;;;;;;;;;;;16.30;99.90;;;;;;5051475;28;19972;-62
2022/10/23 11:52:59;;;;;;;;;;;16.30;99.90;;;;;;5051924;28;20057;-63
2022/10/23 11:55:56;;;;;;;;;;;16.30;99.90;;;;;;5051385;28;20057;-63
2022/10/23 11:58:30;;;;;;;;;;;16.50;99.90;;;;;;5059429;28;19973;-63
2022/10/23 12:01:00;;;;;;;;;;;17.00;99.90;;;;;;5065694;28;19970;-63
2022/10/23 12:03:35;;;;;;;;;;;17.60;99.90;;;;;;5060197;28;20443;-63
2022/10/23 12:06:04;;;;;;;;;;;18.10;99.90;;;;;;5051307;28;19967;-63
2022/10/23 12:08:34;;;;;;;;;;;18.40;99.90;;;;;;5051308;28;20062;-62
2022/10/23 12:11:01;;;;;;;;;;;18.80;99.90;;;;;;5051086;28;19974;-63
2022/10/23 12:13:31;;;;;;;;;;;19.10;99.90;;;;;;5051446;28;20034;-63
2022/10/23 12:15:59;;;;;;;;;;;19.50;99.90;;;;;;5050834;28;19973;-63
2022/10/23 12:18:28;;;;;;;;;;;19.70;99.90;;;;;;5051808;28;20356;-63
2022/10/23 12:20:57;;;;;;;;;;;20.00;99.90;;;;;;5051351;28;19967;-63
2022/10/23 12:23:37;;;;;;;;;;;20.40;99.90;;;;;;5050497;28;20447;-63
2022/10/23 12:26:13;;;;;;;;;;;20.60;99.90;;;;;;5051121;28;19970;-63
2022/10/23 12:28:45;;;;;;;;;;;20.80;99.90;;;;;;5058778;28;19963;-64
2022/10/23 12:31:23;;;;;;;;;;;20.90;99.90;;;;;;5067671;28;19967;-64
2022/10/23 12:33:55;;;;;;;;;;;21.20;99.90;;;;;;5071443;28;19970;-63
2022/10/23 12:36:27;;;;;;;;;;;21.10;99.90;;;;;;5070903;28;19967;-63
2022/10/23 12:38:57;;;;;;;;;;;21.30;99.90;;;;;;5048077;28;20082;-63
2022/10/23 12:41:27;;;;;;;;;;;21.60;99.90;;;;;;5030883;28;19967;-64
2022/10/23 12:43:56;;;;;;;;;;;21.70;99.90;;;;;;5035566;28;20404;-63
2022/10/23 12:46:29;;;;;;;;;;;21.80;99.90;;;;;;5034989;28;19973;-63
2022/10/23 12:48:57;;;;;;;;;;;21.80;99.90;;;;;;5035218;28;19968;-64
2022/10/23 12:51:26;;;;;;;;;;;21.60;99.90;;;;;;5034923;28;20364;-63
2022/10/23 12:53:56;;;;;;;;;;;21.40;99.90;;;;;;5035116;28;20039;-63
2022/10/23 12:56:24;;;;;;;;;;;21.10;99.90;;;;;;5034873;28;20059;-63
2022/10/23 12:58:53;;;;;;;;;;;20.80;99.90;;;;;;5056710;28;19963;-63
2022/10/23 13:01:25;;;;;;;;;;;20.50;99.90;;;;;;5056888;28;19973;-63
2022/10/23 13:03:58;;;;;;;;;;;20.40;99.90;;;;;;5054918;28;19975;-63
2022/10/23 13:06:26;;;;;;;;;;;20.30;99.90;;;;;;5054665;28;20017;-63
2022/10/23 13:08:54;;;;;;;;;;;20.20;99.90;;;;;;5054668;28;19989;-63
2022/10/23 13:11:24;;;;;;;;;;;20.00;99.90;;;;;;5054421;28;20435;-63
2022/10/23 13:13:52;;;;;;;;;;;19.90;99.90;;;;;;5045988;28;20416;-63
2022/10/23 13:16:21;;;;;;;;;;;19.60;99.90;;;;;;5034487;28;19967;-63
2022/10/23 13:18:48;;;;;;;;;;;19.50;99.90;;;;;;5034727;28;19985;-63
2022/10/23 13:21:19;;;;;;;;;;;19.50;99.90;;;;;;5034400;28;19973;-63
2022/10/23 13:23:47;;;;;;;;;;;19.50;99.90;;;;;;5034377;28;20074;-63
2022/10/23 13:26:29;;;;;;;;;;;19.40;99.90;;;;;;5034254;28;20409;-63
2022/10/23 13:28:57;;;;;;;;;;;19.20;99.90;;;;;;5056726;28;20390;-63
2022/10/23 13:31:27;;;;;;;;;;;19.20;99.90;;;;;;5072311;28;19967;-63
2022/10/23 13:34:13;;;;;;;;;;;19.20;99.90;;;;;;5066632;28;19970;-63
2022/10/23 13:36:49;;;;;;;;;;;19.20;99.90;;;;;;5041133;28;20420;-63
2022/10/23 13:39:23;;;;;;;;;;;19.10;99.90;;;;;;5034038;28;19971;-63
2022/10/23 13:41:52;;;;;;;;;;;19.10;99.90;;;;;;5033936;28;19967;-63
2022/10/23 13:44:21;;;;;;;;;;;19.00;99.90;;;;;;5034068;28;20321;-63
2022/10/23 13:46:50;;;;;;;;;;;19.00;99.90;;;;;;5033809;28;19967;-63
2022/10/23 13:49:19;;;;;;;;;;;19.00;99.90;;;;;;5034274;28;20022;-63
2022/10/23 13:51:48;;;;;;;;;;;19.00;99.90;;;;;;5033690;28;20069;-63
2022/10/23 13:54:17;;;;;;;;;;;19.00;99.90;;;;;;5033496;28;19967;-63
2022/10/23 13:56:45;;;;;;;;;;;18.90;99.90;;;;;;5036430;28;20069;-63
2022/10/23 13:59:15;;;;;;;;;;;18.90;99.90;;;;;;5061758;28;20435;-63
2022/10/23 14:01:43;;;;;;;;;;;18.80;99.90;;;;;;5073565;28;20439;-63
2022/10/23 14:04:11;;;;;;;;;;;18.80;99.90;;;;;;5073906;28;20362;-63
2022/10/23 14:06:39;;;;;;;;;;;18.80;99.90;;;;;;5073690;28;20065;-63
2022/10/23 14:09:08;;;;;;;;;;;18.80;99.90;;;;;;5066554;28;19985;-63
2022/10/23 14:11:36;;;;;;;;;;;18.70;99.90;;;;;;5053471;28;20010;-63
2022/10/23 14:14:04;;;;;;;;;;;18.70;99.90;;;;;;5053593;28;19966;-63
2022/10/23 14:16:33;;;;;;;;;;;18.70;99.90;;;;;;5053373;28;20430;-63
2022/10/23 14:19:00;;;;;;;;;;;18.60;99.90;;;;;;5053272;28;19977;-63
2022/10/23 14:21:28;;;;;;;;;;;18.60;99.90;;;;;;5053586;28;20372;-63
2022/10/23 14:23:56;;;;;;;;;;;18.60;99.90;;;;;;5052909;28;19966;-63
2022/10/23 14:26:26;;;;;;;;;;;18.60;99.90;;;;;;5035441;28;19977;-63
2022/10/23 14:28:54;;;;;;;;;;;18.60;99.90;;;;;;5055706;28;20057;-63
2022/10/23 14:31:22;;;;;;;;;;;18.50;99.90;;;;;;5070565;28;19973;-63
2022/10/23 14:33:55;;;;;;;;;;;18.40;99.90;;;;;;5073283;28;20438;-63